sensor_id;sensor_type;location;lat;lon;timestamp;P1;durP1;ratioP1;P2;durP2;ratioP2
64520;SDS011;50896;46.714;17.322;2023-01-01T00:02:35;11.45;;;5.38;;
64520;SDS011;50896;46.714;17.322;2023-01-01T00:05:03;10.63;;;5.07;;
64520;SDS011;50896;46.714;17.322;2023-01-01T00:07:30;10.23;;;4.50;;
64520;SDS011;50896;46.714;17.322;2023-01-01T00:09:57;8.57;;;4.35;;
64520;SDS011;50896;46.714;17.322;2023-01-01T00:12:43;8.02;;;3.75;;
64520;SDS011;50896;46.714;17.322;2023-01-01T00:15:10;7.50;;;4.05;;
64520;SDS011;50896;46.714;17.322;2023-01-01T00:17:36;6.70;;;3.90;;
64520;SDS011;50896;46.714;17.322;2023-01-01T00:20:03;6.05;;;3.72;;
64520;SDS011;50896;46.714;17.322;2023-01-01T00:22:31;9.05;;;4.20;;
64520;SDS011;50896;46.714;17.322;2023-01-01T00:25:18;9.82;;;4.22;;
64520;SDS011;50896;46.714;17.322;2023-01-01T00:27:45;6.25;;;3.53;;
64520;SDS011;50896;46.714;17.322;2023-01-01T00:30:12;7.90;;;3.80;;
64520;SDS011;50896;46.714;17.322;2023-01-01T00:32:39;6.05;;;4.10;;
64520;SDS011;50896;46.714;17.322;2023-01-01T00:35:06;6.30;;;3.50;;
64520;SDS011;50896;46.714;17.322;2023-01-01T00:37:33;7.13;;;3.20;;
64520;SDS011;50896;46.714;17.322;2023-01-01T00:40:00;6.15;;;3.80;;
64520;SDS011;50896;46.714;17.322;2023-01-01T00:42:26;9.73;;;3.80;;
64520;SDS011;50896;46.714;17.322;2023-01-01T00:44:53;6.60;;;3.78;;
64520;SDS011;50896;46.714;17.322;2023-01-01T00:47:20;7.05;;;3.53;;
64520;SDS011;50896;46.714;17.322;2023-01-01T00:49:47;7.47;;;3.63;;
64520;SDS011;50896;46.714;17.322;2023-01-01T00:52:13;6.22;;;3.53;;
64520;SDS011;50896;46.714;17.322;2023-01-01T00:54:40;8.27;;;3.92;;
64520;SDS011;50896;46.714;17.322;2023-01-01T00:57:07;7.00;;;3.60;;
64520;SDS011;50896;46.714;17.322;2023-01-01T00:59:34;8.20;;;4.10;;
64520;SDS011;50896;46.714;17.322;2023-01-01T01:02:01;7.80;;;3.45;;
64520;SDS011;50896;46.714;17.322;2023-01-01T01:04:28;6.20;;;3.35;;
64520;SDS011;50896;46.714;17.322;2023-01-01T01:06:55;8.18;;;4.28;;
64520;SDS011;50896;46.714;17.322;2023-01-01T01:09:22;6.95;;;4.32;;
64520;SDS011;50896;46.714;17.322;2023-01-01T01:11:48;8.95;;;3.53;;
64520;SDS011;50896;46.714;17.322;2023-01-01T01:14:15;7.13;;;3.85;;
64520;SDS011;50896;46.714;17.322;2023-01-01T01:16:42;7.85;;;4.35;;
64520;SDS011;50896;46.714;17.322;2023-01-01T01:19:09;7.55;;;3.90;;
64520;SDS011;50896;46.714;17.322;2023-01-01T01:21:40;7.10;;;3.97;;
64520;SDS011;50896;46.714;17.322;2023-01-01T01:24:08;6.68;;;3.90;;
64520;SDS011;50896;46.714;17.322;2023-01-01T01:26:35;6.03;;;4.00;;
64520;SDS011;50896;46.714;17.322;2023-01-01T01:29:02;6.95;;;4.13;;
64520;SDS011;50896;46.714;17.322;2023-01-01T01:31:30;7.82;;;3.50;;
64520;SDS011;50896;46.714;17.322;2023-01-01T01:33:58;8.52;;;3.90;;
64520;SDS011;50896;46.714;17.322;2023-01-01T01:36:25;6.28;;;3.67;;
64520;SDS011;50896;46.714;17.322;2023-01-01T01:38:52;7.53;;;4.00;;
64520;SDS011;50896;46.714;17.322;2023-01-01T01:41:21;8.60;;;3.75;;
64520;SDS011;50896;46.714;17.322;2023-01-01T01:44:01;8.80;;;4.43;;
64520;SDS011;50896;46.714;17.322;2023-01-01T01:49:01;7.20;;;4.10;;
64520;SDS011;50896;46.714;17.322;2023-01-01T01:51:32;8.02;;;3.70;;
64520;SDS011;50896;46.714;17.322;2023-01-01T01:54:04;7.75;;;3.92;;
64520;SDS011;50896;46.714;17.322;2023-01-01T01:56:38;8.02;;;3.80;;
64520;SDS011;50896;46.714;17.322;2023-01-01T01:59:17;6.80;;;4.22;;
64520;SDS011;50896;46.714;17.322;2023-01-01T02:01:47;8.93;;;3.90;;
64520;SDS011;50896;46.714;17.322;2023-01-01T02:04:14;9.20;;;4.00;;
64520;SDS011;50896;46.714;17.322;2023-01-01T02:06:42;4.93;;;3.35;;
64520;SDS011;50896;46.714;17.322;2023-01-01T02:09:10;6.40;;;3.35;;
64520;SDS011;50896;46.714;17.322;2023-01-01T02:11:38;7.20;;;4.00;;
64520;SDS011;50896;46.714;17.322;2023-01-01T02:14:05;5.78;;;3.45;;
64520;SDS011;50896;46.714;17.322;2023-01-01T02:30:40;6.55;;;3.60;;
64520;SDS011;50896;46.714;17.322;2023-01-01T02:33:16;6.10;;;3.50;;
64520;SDS011;50896;46.714;17.322;2023-01-01T02:36:07;5.70;;;3.53;;
64520;SDS011;50896;46.714;17.322;2023-01-01T02:38:35;6.82;;;3.55;;
64520;SDS011;50896;46.714;17.322;2023-01-01T02:41:11;4.97;;;3.17;;
64520;SDS011;50896;46.714;17.322;2023-01-01T02:43:43;7.90;;;3.40;;
64520;SDS011;50896;46.714;17.322;2023-01-01T02:46:10;6.95;;;3.35;;
64520;SDS011;50896;46.714;17.322;2023-01-01T02:48:44;9.25;;;3.33;;
64520;SDS011;50896;46.714;17.322;2023-01-01T03:02:38;7.55;;;4.00;;
64520;SDS011;50896;46.714;17.322;2023-01-01T03:05:23;7.18;;;3.80;;
64520;SDS011;50896;46.714;17.322;2023-01-01T03:08:11;6.95;;;4.13;;
64520;SDS011;50896;46.714;17.322;2023-01-01T03:10:57;9.07;;;4.40;;
64520;SDS011;50896;46.714;17.322;2023-01-01T03:16:16;8.45;;;3.95;;
64520;SDS011;50896;46.714;17.322;2023-01-01T03:18:57;6.75;;;4.35;;
64520;SDS011;50896;46.714;17.322;2023-01-01T03:21:40;10.38;;;4.53;;
64520;SDS011;50896;46.714;17.322;2023-01-01T03:24:08;9.85;;;4.72;;
64520;SDS011;50896;46.714;17.322;2023-01-01T03:26:41;8.38;;;4.50;;
64520;SDS011;50896;46.714;17.322;2023-01-01T03:29:10;7.85;;;4.00;;
64520;SDS011;50896;46.714;17.322;2023-01-01T03:31:39;12.32;;;4.65;;
64520;SDS011;50896;46.714;17.322;2023-01-01T03:34:14;9.10;;;4.20;;
64520;SDS011;50896;46.714;17.322;2023-01-01T03:36:49;9.43;;;4.47;;
64520;SDS011;50896;46.714;17.322;2023-01-01T03:39:21;8.98;;;4.10;;
64520;SDS011;50896;46.714;17.322;2023-01-01T03:41:54;8.45;;;4.35;;
64520;SDS011;50896;46.714;17.322;2023-01-01T03:44:35;9.98;;;4.47;;
64520;SDS011;50896;46.714;17.322;2023-01-01T03:47:16;6.50;;;3.90;;
64520;SDS011;50896;46.714;17.322;2023-01-01T03:49:43;7.10;;;4.38;;
64520;SDS011;50896;46.714;17.322;2023-01-01T03:55:08;6.68;;;4.03;;
64520;SDS011;50896;46.714;17.322;2023-01-01T04:00:49;7.80;;;4.72;;
64520;SDS011;50896;46.714;17.322;2023-01-01T04:03:22;8.25;;;4.05;;
64520;SDS011;50896;46.714;17.322;2023-01-01T04:05:51;9.45;;;4.38;;
64520;SDS011;50896;46.714;17.322;2023-01-01T04:08:18;10.75;;;4.38;;
64520;SDS011;50896;46.714;17.322;2023-01-01T04:10:46;9.45;;;3.97;;
64520;SDS011;50896;46.714;17.322;2023-01-01T04:13:16;6.75;;;4.00;;
64520;SDS011;50896;46.714;17.322;2023-01-01T04:15:43;8.43;;;3.83;;
64520;SDS011;50896;46.714;17.322;2023-01-01T04:18:10;7.15;;;4.47;;
64520;SDS011;50896;46.714;17.322;2023-01-01T04:20:37;9.52;;;3.95;;
64520;SDS011;50896;46.714;17.322;2023-01-01T04:23:03;5.88;;;3.58;;
64520;SDS011;50896;46.714;17.322;2023-01-01T04:25:30;6.78;;;3.70;;
64520;SDS011;50896;46.714;17.322;2023-01-01T04:27:58;7.55;;;3.83;;
64520;SDS011;50896;46.714;17.322;2023-01-01T04:30:24;7.13;;;3.58;;
64520;SDS011;50896;46.714;17.322;2023-01-01T04:32:53;8.07;;;3.22;;
64520;SDS011;50896;46.714;17.322;2023-01-01T04:35:20;6.80;;;3.50;;
64520;SDS011;50896;46.714;17.322;2023-01-01T04:37:48;8.50;;;4.32;;
64520;SDS011;50896;46.714;17.322;2023-01-01T04:40:15;8.13;;;3.70;;
64520;SDS011;50896;46.714;17.322;2023-01-01T04:42:42;5.95;;;2.97;;
64520;SDS011;50896;46.714;17.322;2023-01-01T04:45:09;6.80;;;3.25;;
64520;SDS011;50896;46.714;17.322;2023-01-01T04:47:37;5.32;;;2.97;;
64520;SDS011;50896;46.714;17.322;2023-01-01T04:50:05;7.32;;;3.15;;
64520;SDS011;50896;46.714;17.322;2023-01-01T04:52:32;8.88;;;3.00;;
64520;SDS011;50896;46.714;17.322;2023-01-01T04:54:59;5.30;;;2.75;;
64520;SDS011;50896;46.714;17.322;2023-01-01T04:57:27;7.38;;;2.50;;
64520;SDS011;50896;46.714;17.322;2023-01-01T04:59:55;5.47;;;2.75;;
64520;SDS011;50896;46.714;17.322;2023-01-01T05:02:22;6.13;;;2.58;;
64520;SDS011;50896;46.714;17.322;2023-01-01T05:04:49;4.95;;;2.58;;
64520;SDS011;50896;46.714;17.322;2023-01-01T05:07:16;4.43;;;2.67;;
64520;SDS011;50896;46.714;17.322;2023-01-01T05:09:43;6.03;;;2.60;;
64520;SDS011;50896;46.714;17.322;2023-01-01T05:12:10;4.97;;;2.70;;
64520;SDS011;50896;46.714;17.322;2023-01-01T05:14:36;5.72;;;2.55;;
64520;SDS011;50896;46.714;17.322;2023-01-01T05:17:03;4.22;;;2.17;;
64520;SDS011;50896;46.714;17.322;2023-01-01T05:19:30;3.80;;;2.30;;
64520;SDS011;50896;46.714;17.322;2023-01-01T05:21:57;8.20;;;2.63;;
64520;SDS011;50896;46.714;17.322;2023-01-01T05:24:23;5.10;;;2.72;;
64520;SDS011;50896;46.714;17.322;2023-01-01T05:26:50;5.85;;;2.47;;
64520;SDS011;50896;46.714;17.322;2023-01-01T05:29:18;3.90;;;2.40;;
64520;SDS011;50896;46.714;17.322;2023-01-01T05:31:45;5.82;;;2.33;;
64520;SDS011;50896;46.714;17.322;2023-01-01T05:34:12;5.75;;;2.40;;
64520;SDS011;50896;46.714;17.322;2023-01-01T05:36:39;6.22;;;2.30;;
64520;SDS011;50896;46.714;17.322;2023-01-01T05:39:09;3.90;;;2.50;;
64520;SDS011;50896;46.714;17.322;2023-01-01T05:41:38;3.88;;;2.15;;
64520;SDS011;50896;46.714;17.322;2023-01-01T05:44:06;6.63;;;2.30;;
64520;SDS011;50896;46.714;17.322;2023-01-01T05:46:34;6.20;;;2.40;;
64520;SDS011;50896;46.714;17.322;2023-01-01T05:49:02;5.40;;;2.55;;
64520;SDS011;50896;46.714;17.322;2023-01-01T05:51:29;4.90;;;2.55;;
64520;SDS011;50896;46.714;17.322;2023-01-01T05:53:56;4.35;;;2.05;;
64520;SDS011;50896;46.714;17.322;2023-01-01T05:56:25;5.43;;;2.30;;
64520;SDS011;50896;46.714;17.322;2023-01-01T05:58:52;5.93;;;2.40;;
64520;SDS011;50896;46.714;17.322;2023-01-01T06:03:48;4.75;;;2.63;;
64520;SDS011;50896;46.714;17.322;2023-01-01T06:06:17;5.65;;;2.83;;
64520;SDS011;50896;46.714;17.322;2023-01-01T06:08:54;3.40;;;2.35;;
64520;SDS011;50896;46.714;17.322;2023-01-01T06:11:22;4.13;;;2.58;;
64520;SDS011;50896;46.714;17.322;2023-01-01T06:13:53;5.10;;;2.78;;
64520;SDS011;50896;46.714;17.322;2023-01-01T06:16:22;6.30;;;3.22;;
64520;SDS011;50896;46.714;17.322;2023-01-01T06:18:49;7.60;;;3.17;;
64520;SDS011;50896;46.714;17.322;2023-01-01T06:21:18;4.15;;;2.70;;
64520;SDS011;50896;46.714;17.322;2023-01-01T06:23:47;5.30;;;2.60;;
64520;SDS011;50896;46.714;17.322;2023-01-01T06:26:18;3.90;;;2.45;;
64520;SDS011;50896;46.714;17.322;2023-01-01T06:28:47;5.15;;;2.80;;
64520;SDS011;50896;46.714;17.322;2023-01-01T06:31:15;5.47;;;2.65;;
64520;SDS011;50896;46.714;17.322;2023-01-01T06:33:44;5.70;;;2.50;;
64520;SDS011;50896;46.714;17.322;2023-01-01T06:36:12;4.47;;;2.60;;
64520;SDS011;50896;46.714;17.322;2023-01-01T06:38:41;4.35;;;2.80;;
64520;SDS011;50896;46.714;17.322;2023-01-01T06:41:14;6.95;;;2.70;;
64520;SDS011;50896;46.714;17.322;2023-01-01T06:43:43;5.68;;;3.20;;
64520;SDS011;50896;46.714;17.322;2023-01-01T06:46:17;4.53;;;2.63;;
64520;SDS011;50896;46.714;17.322;2023-01-01T06:48:53;4.95;;;2.65;;
64520;SDS011;50896;46.714;17.322;2023-01-01T06:51:26;5.25;;;2.67;;
64520;SDS011;50896;46.714;17.322;2023-01-01T06:54:02;5.10;;;2.97;;
64520;SDS011;50896;46.714;17.322;2023-01-01T06:56:30;6.32;;;3.10;;
64520;SDS011;50896;46.714;17.322;2023-01-01T06:58:58;5.20;;;3.08;;
64520;SDS011;50896;46.714;17.322;2023-01-01T07:01:26;5.90;;;2.60;;
64520;SDS011;50896;46.714;17.322;2023-01-01T07:03:57;8.57;;;3.30;;
64520;SDS011;50896;46.714;17.322;2023-01-01T07:06:25;5.57;;;2.83;;
64520;SDS011;50896;46.714;17.322;2023-01-01T07:08:54;6.25;;;2.55;;
64520;SDS011;50896;46.714;17.322;2023-01-01T07:11:21;6.75;;;3.22;;
64520;SDS011;50896;46.714;17.322;2023-01-01T07:13:48;5.22;;;3.08;;
64520;SDS011;50896;46.714;17.322;2023-01-01T07:16:15;5.85;;;2.83;;
64520;SDS011;50896;46.714;17.322;2023-01-01T07:18:42;5.50;;;2.70;;
64520;SDS011;50896;46.714;17.322;2023-01-01T07:21:25;4.63;;;2.70;;
64520;SDS011;50896;46.714;17.322;2023-01-01T07:24:01;7.05;;;2.65;;
64520;SDS011;50896;46.714;17.322;2023-01-01T07:26:31;5.60;;;2.83;;
64520;SDS011;50896;46.714;17.322;2023-01-01T07:28:59;5.55;;;2.60;;
64520;SDS011;50896;46.714;17.322;2023-01-01T07:31:34;9.77;;;2.78;;
64520;SDS011;50896;46.714;17.322;2023-01-01T07:34:03;6.50;;;3.65;;
64520;SDS011;50896;46.714;17.322;2023-01-01T07:36:31;5.68;;;2.35;;
64520;SDS011;50896;46.714;17.322;2023-01-01T07:38:58;7.07;;;2.75;;
64520;SDS011;50896;46.714;17.322;2023-01-01T07:41:25;6.90;;;2.58;;
64520;SDS011;50896;46.714;17.322;2023-01-01T07:43:51;5.45;;;2.55;;
64520;SDS011;50896;46.714;17.322;2023-01-01T07:46:18;4.22;;;2.55;;
64520;SDS011;50896;46.714;17.322;2023-01-01T07:48:45;6.38;;;2.60;;
64520;SDS011;50896;46.714;17.322;2023-01-01T07:51:13;10.30;;;2.53;;
64520;SDS011;50896;46.714;17.322;2023-01-01T07:53:40;3.65;;;2.40;;
64520;SDS011;50896;46.714;17.322;2023-01-01T07:56:07;5.75;;;2.60;;
64520;SDS011;50896;46.714;17.322;2023-01-01T07:58:34;7.70;;;2.72;;
64520;SDS011;50896;46.714;17.322;2023-01-01T08:01:08;4.80;;;2.42;;
64520;SDS011;50896;46.714;17.322;2023-01-01T08:03:37;6.25;;;2.88;;
64520;SDS011;50896;46.714;17.322;2023-01-01T08:06:08;8.13;;;3.13;;
64520;SDS011;50896;46.714;17.322;2023-01-01T08:08:36;4.60;;;3.00;;
64520;SDS011;50896;46.714;17.322;2023-01-01T08:11:03;6.85;;;2.95;;
64520;SDS011;50896;46.714;17.322;2023-01-01T08:13:31;4.30;;;2.67;;
64520;SDS011;50896;46.714;17.322;2023-01-01T08:15:57;6.63;;;2.90;;
64520;SDS011;50896;46.714;17.322;2023-01-01T08:18:24;5.28;;;2.75;;
64520;SDS011;50896;46.714;17.322;2023-01-01T08:20:51;4.75;;;2.60;;
64520;SDS011;50896;46.714;17.322;2023-01-01T08:23:19;6.10;;;2.63;;
64520;SDS011;50896;46.714;17.322;2023-01-01T08:25:46;5.70;;;2.60;;
64520;SDS011;50896;46.714;17.322;2023-01-01T08:28:12;4.95;;;2.47;;
64520;SDS011;50896;46.714;17.322;2023-01-01T08:30:39;5.95;;;3.17;;
64520;SDS011;50896;46.714;17.322;2023-01-01T08:33:06;6.45;;;2.70;;
64520;SDS011;50896;46.714;17.322;2023-01-01T08:35:33;6.70;;;3.17;;
64520;SDS011;50896;46.714;17.322;2023-01-01T08:38:04;5.55;;;2.80;;
64520;SDS011;50896;46.714;17.322;2023-01-01T08:40:31;6.72;;;2.75;;
64520;SDS011;50896;46.714;17.322;2023-01-01T08:42:57;6.57;;;2.60;;
64520;SDS011;50896;46.714;17.322;2023-01-01T08:45:24;5.05;;;3.03;;
64520;SDS011;50896;46.714;17.322;2023-01-01T08:47:51;4.35;;;3.00;;
64520;SDS011;50896;46.714;17.322;2023-01-01T08:50:18;11.13;;;3.35;;
64520;SDS011;50896;46.714;17.322;2023-01-01T08:52:44;6.57;;;3.03;;
64520;SDS011;50896;46.714;17.322;2023-01-01T08:55:11;8.60;;;2.97;;
64520;SDS011;50896;46.714;17.322;2023-01-01T08:57:38;6.63;;;3.10;;
64520;SDS011;50896;46.714;17.322;2023-01-01T09:00:05;7.07;;;2.95;;
64520;SDS011;50896;46.714;17.322;2023-01-01T09:05:02;4.45;;;2.65;;
64520;SDS011;50896;46.714;17.322;2023-01-01T09:07:29;5.20;;;3.00;;
64520;SDS011;50896;46.714;17.322;2023-01-01T09:09:55;4.80;;;2.75;;
64520;SDS011;50896;46.714;17.322;2023-01-01T09:12:22;5.05;;;2.80;;
64520;SDS011;50896;46.714;17.322;2023-01-01T09:14:49;4.97;;;2.70;;
64520;SDS011;50896;46.714;17.322;2023-01-01T09:17:16;4.65;;;2.40;;
64520;SDS011;50896;46.714;17.322;2023-01-01T09:19:43;7.70;;;2.65;;
64520;SDS011;50896;46.714;17.322;2023-01-01T09:22:10;5.30;;;2.78;;
64520;SDS011;50896;46.714;17.322;2023-01-01T09:24:37;4.60;;;2.50;;
64520;SDS011;50896;46.714;17.322;2023-01-01T09:27:04;4.68;;;2.83;;
64520;SDS011;50896;46.714;17.322;2023-01-01T09:29:31;5.13;;;2.40;;
64520;SDS011;50896;46.714;17.322;2023-01-01T09:31:58;5.32;;;2.65;;
64520;SDS011;50896;46.714;17.322;2023-01-01T09:34:25;4.55;;;2.60;;
64520;SDS011;50896;46.714;17.322;2023-01-01T09:36:52;5.50;;;2.58;;
64520;SDS011;50896;46.714;17.322;2023-01-01T09:39:18;5.38;;;2.70;;
64520;SDS011;50896;46.714;17.322;2023-01-01T09:41:57;3.75;;;2.60;;
64520;SDS011;50896;46.714;17.322;2023-01-01T09:47:22;3.70;;;2.47;;
64520;SDS011;50896;46.714;17.322;2023-01-01T09:49:55;3.47;;;2.40;;
64520;SDS011;50896;46.714;17.322;2023-01-01T09:52:34;6.78;;;2.70;;
64520;SDS011;50896;46.714;17.322;2023-01-01T09:55:26;4.80;;;2.25;;
64520;SDS011;50896;46.714;17.322;2023-01-01T09:57:55;6.80;;;2.28;;
64520;SDS011;50896;46.714;17.322;2023-01-01T10:00:22;4.97;;;2.55;;
64520;SDS011;50896;46.714;17.322;2023-01-01T10:13:56;6.88;;;2.38;;
64520;SDS011;50896;46.714;17.322;2023-01-01T10:16:39;4.03;;;2.22;;
64520;SDS011;50896;46.714;17.322;2023-01-01T10:21:47;3.95;;;2.00;;
64520;SDS011;50896;46.714;17.322;2023-01-01T10:26:53;4.43;;;2.15;;
64520;SDS011;50896;46.714;17.322;2023-01-01T10:29:23;5.80;;;2.22;;
64520;SDS011;50896;46.714;17.322;2023-01-01T10:31:58;4.95;;;2.47;;
64520;SDS011;50896;46.714;17.322;2023-01-01T10:34:42;5.05;;;2.42;;
64520;SDS011;50896;46.714;17.322;2023-01-01T10:37:10;4.25;;;2.40;;
64520;SDS011;50896;46.714;17.322;2023-01-01T10:39:38;6.78;;;2.55;;
64520;SDS011;50896;46.714;17.322;2023-01-01T10:42:06;5.88;;;2.45;;
64520;SDS011;50896;46.714;17.322;2023-01-01T10:44:33;4.20;;;2.00;;
64520;SDS011;50896;46.714;17.322;2023-01-01T10:47:03;6.20;;;2.28;;
64520;SDS011;50896;46.714;17.322;2023-01-01T10:49:58;4.10;;;1.90;;
64520;SDS011;50896;46.714;17.322;2023-01-01T10:52:36;5.95;;;2.15;;
64520;SDS011;50896;46.714;17.322;2023-01-01T10:55:18;4.68;;;2.20;;
64520;SDS011;50896;46.714;17.322;2023-01-01T10:57:47;6.53;;;2.70;;
64520;SDS011;50896;46.714;17.322;2023-01-01T11:00:23;8.68;;;3.70;;
64520;SDS011;50896;46.714;17.322;2023-01-01T11:08:30;9.97;;;4.27;;
64520;SDS011;50896;46.714;17.322;2023-01-01T11:11:00;8.77;;;4.20;;
64520;SDS011;50896;46.714;17.322;2023-01-01T11:13:28;8.98;;;3.45;;
64520;SDS011;50896;46.714;17.322;2023-01-01T11:15:56;7.10;;;2.70;;
64520;SDS011;50896;46.714;17.322;2023-01-01T11:18:28;5.97;;;2.20;;
64520;SDS011;50896;46.714;17.322;2023-01-01T11:21:02;6.15;;;2.13;;
64520;SDS011;50896;46.714;17.322;2023-01-01T11:28:38;5.22;;;1.83;;
64520;SDS011;50896;46.714;17.322;2023-01-01T11:33:49;4.78;;;2.28;;
64520;SDS011;50896;46.714;17.322;2023-01-01T11:36:26;6.32;;;2.05;;
64520;SDS011;50896;46.714;17.322;2023-01-01T11:41:55;3.10;;;2.00;;
64520;SDS011;50896;46.714;17.322;2023-01-01T11:44:33;2.35;;;1.80;;
64520;SDS011;50896;46.714;17.322;2023-01-01T11:47:03;4.63;;;1.83;;
64520;SDS011;50896;46.714;17.322;2023-01-01T11:49:32;6.80;;;1.98;;
64520;SDS011;50896;46.714;17.322;2023-01-01T11:52:00;2.53;;;1.77;;
64520;SDS011;50896;46.714;17.322;2023-01-01T11:54:59;6.45;;;2.22;;
64520;SDS011;50896;46.714;17.322;2023-01-01T12:00:02;3.92;;;2.10;;
64520;SDS011;50896;46.714;17.322;2023-01-01T12:02:40;4.88;;;2.17;;
64520;SDS011;50896;46.714;17.322;2023-01-01T12:05:22;5.00;;;2.35;;
64520;SDS011;50896;46.714;17.322;2023-01-01T12:07:51;5.32;;;2.20;;
64520;SDS011;50896;46.714;17.322;2023-01-01T12:10:24;4.05;;;1.80;;
64520;SDS011;50896;46.714;17.322;2023-01-01T12:12:57;5.63;;;2.28;;
64520;SDS011;50896;46.714;17.322;2023-01-01T12:15:33;5.63;;;2.80;;
64520;SDS011;50896;46.714;17.322;2023-01-01T12:21:25;5.30;;;2.53;;
64520;SDS011;50896;46.714;17.322;2023-01-01T12:23:54;4.60;;;2.15;;
64520;SDS011;50896;46.714;17.322;2023-01-01T12:26:22;4.28;;;2.10;;
64520;SDS011;50896;46.714;17.322;2023-01-01T12:29:12;4.93;;;2.00;;
64520;SDS011;50896;46.714;17.322;2023-01-01T12:42:59;3.80;;;2.58;;
64520;SDS011;50896;46.714;17.322;2023-01-01T12:59:05;2.75;;;2.40;;
64520;SDS011;50896;46.714;17.322;2023-01-01T13:01:38;4.07;;;2.20;;
64520;SDS011;50896;46.714;17.322;2023-01-01T13:04:08;4.13;;;1.88;;
64520;SDS011;50896;46.714;17.322;2023-01-01T13:06:51;4.50;;;2.13;;
64520;SDS011;50896;46.714;17.322;2023-01-01T13:09:23;6.20;;;2.20;;
64520;SDS011;50896;46.714;17.322;2023-01-01T13:11:54;6.10;;;2.40;;
64520;SDS011;50896;46.714;17.322;2023-01-01T13:14:25;7.68;;;3.10;;
64520;SDS011;50896;46.714;17.322;2023-01-01T13:16:55;6.38;;;2.72;;
64520;SDS011;50896;46.714;17.322;2023-01-01T13:19:24;8.82;;;2.80;;
64520;SDS011;50896;46.714;17.322;2023-01-01T13:21:56;7.68;;;3.00;;
64520;SDS011;50896;46.714;17.322;2023-01-01T13:24:24;7.65;;;2.90;;
64520;SDS011;50896;46.714;17.322;2023-01-01T13:26:52;9.23;;;3.08;;
64520;SDS011;50896;46.714;17.322;2023-01-01T13:39:52;5.10;;;2.40;;
64520;SDS011;50896;46.714;17.322;2023-01-01T13:57:02;5.85;;;2.72;;
64520;SDS011;50896;46.714;17.322;2023-01-01T13:59:45;7.40;;;2.70;;
64520;SDS011;50896;46.714;17.322;2023-01-01T14:02:44;5.68;;;2.63;;
64520;SDS011;50896;46.714;17.322;2023-01-01T14:05:37;5.97;;;2.85;;
64520;SDS011;50896;46.714;17.322;2023-01-01T14:08:27;6.65;;;2.10;;
64520;SDS011;50896;46.714;17.322;2023-01-01T14:10:56;6.45;;;3.15;;
64520;SDS011;50896;46.714;17.322;2023-01-01T14:13:27;7.90;;;3.45;;
64520;SDS011;50896;46.714;17.322;2023-01-01T14:15:59;5.53;;;3.35;;
64520;SDS011;50896;46.714;17.322;2023-01-01T14:18:30;7.43;;;3.50;;
64520;SDS011;50896;46.714;17.322;2023-01-01T14:21:16;9.13;;;3.60;;
64520;SDS011;50896;46.714;17.322;2023-01-01T14:23:56;9.85;;;5.07;;
64520;SDS011;50896;46.714;17.322;2023-01-01T14:28:54;6.15;;;3.30;;
64520;SDS011;50896;46.714;17.322;2023-01-01T14:31:29;5.70;;;2.90;;
64520;SDS011;50896;46.714;17.322;2023-01-01T14:33:59;3.05;;;2.17;;
64520;SDS011;50896;46.714;17.322;2023-01-01T14:36:28;3.92;;;1.60;;
64520;SDS011;50896;46.714;17.322;2023-01-01T14:38:57;4.20;;;1.92;;
64520;SDS011;50896;46.714;17.322;2023-01-01T14:41:36;2.53;;;1.80;;
64520;SDS011;50896;46.714;17.322;2023-01-01T14:44:10;3.45;;;2.10;;
64520;SDS011;50896;46.714;17.322;2023-01-01T14:46:41;3.85;;;2.58;;
64520;SDS011;50896;46.714;17.322;2023-01-01T14:49:14;6.53;;;3.47;;
64520;SDS011;50896;46.714;17.322;2023-01-01T14:52:05;5.78;;;2.80;;
64520;SDS011;50896;46.714;17.322;2023-01-01T14:54:36;4.30;;;2.42;;
64520;SDS011;50896;46.714;17.322;2023-01-01T14:57:09;3.75;;;2.38;;
64520;SDS011;50896;46.714;17.322;2023-01-01T14:59:45;3.67;;;2.45;;
64520;SDS011;50896;46.714;17.322;2023-01-01T15:02:15;4.88;;;2.40;;
64520;SDS011;50896;46.714;17.322;2023-01-01T15:04:46;5.68;;;2.78;;
64520;SDS011;50896;46.714;17.322;2023-01-01T15:07:27;3.85;;;2.38;;
64520;SDS011;50896;46.714;17.322;2023-01-01T15:09:57;4.75;;;2.80;;
64520;SDS011;50896;46.714;17.322;2023-01-01T15:12:27;6.30;;;3.20;;
64520;SDS011;50896;46.714;17.322;2023-01-01T15:14:55;6.40;;;3.60;;
64520;SDS011;50896;46.714;17.322;2023-01-01T15:17:24;9.13;;;4.05;;
64520;SDS011;50896;46.714;17.322;2023-01-01T15:20:05;6.47;;;3.97;;
64520;SDS011;50896;46.714;17.322;2023-01-01T15:22:45;7.05;;;3.88;;
64520;SDS011;50896;46.714;17.322;2023-01-01T15:25:14;10.05;;;5.20;;
64520;SDS011;50896;46.714;17.322;2023-01-01T15:27:46;8.10;;;4.70;;
64520;SDS011;50896;46.714;17.322;2023-01-01T15:32:49;6.50;;;3.20;;
64520;SDS011;50896;46.714;17.322;2023-01-01T15:35:19;6.22;;;3.22;;
64520;SDS011;50896;46.714;17.322;2023-01-01T15:38:01;5.40;;;3.55;;
64520;SDS011;50896;46.714;17.322;2023-01-01T15:40:36;8.50;;;3.55;;
64520;SDS011;50896;46.714;17.322;2023-01-01T15:43:45;6.25;;;3.33;;
64520;SDS011;50896;46.714;17.322;2023-01-01T15:45:59;6.22;;;3.65;;
64520;SDS011;50896;46.714;17.322;2023-01-01T15:48:49;6.63;;;3.42;;
64520;SDS011;50896;46.714;17.322;2023-01-01T15:51:18;6.93;;;4.07;;
64520;SDS011;50896;46.714;17.322;2023-01-01T15:53:49;7.60;;;3.97;;
64520;SDS011;50896;46.714;17.322;2023-01-01T15:56:19;9.00;;;4.15;;
64520;SDS011;50896;46.714;17.322;2023-01-01T15:59:36;9.20;;;3.72;;
64520;SDS011;50896;46.714;17.322;2023-01-01T16:01:44;9.10;;;4.55;;
64520;SDS011;50896;46.714;17.322;2023-01-01T16:06:45;14.40;;;5.95;;
64520;SDS011;50896;46.714;17.322;2023-01-01T16:09:15;10.35;;;4.68;;
64520;SDS011;50896;46.714;17.322;2023-01-01T16:11:43;10.65;;;4.70;;
64520;SDS011;50896;46.714;17.322;2023-01-01T16:14:11;9.18;;;4.78;;
64520;SDS011;50896;46.714;17.322;2023-01-01T16:16:38;10.75;;;4.93;;
64520;SDS011;50896;46.714;17.322;2023-01-01T16:19:17;8.50;;;4.55;;
64520;SDS011;50896;46.714;17.322;2023-01-01T16:21:46;8.88;;;4.40;;
64520;SDS011;50896;46.714;17.322;2023-01-01T16:24:13;7.32;;;4.00;;
64520;SDS011;50896;46.714;17.322;2023-01-01T16:26:42;8.68;;;4.68;;
64520;SDS011;50896;46.714;17.322;2023-01-01T16:29:10;8.63;;;5.40;;
64520;SDS011;50896;46.714;17.322;2023-01-01T16:31:37;8.60;;;4.15;;
64520;SDS011;50896;46.714;17.322;2023-01-01T16:34:05;7.10;;;3.85;;
64520;SDS011;50896;46.714;17.322;2023-01-01T16:36:32;6.53;;;4.30;;
64520;SDS011;50896;46.714;17.322;2023-01-01T16:38:59;11.77;;;5.00;;
64520;SDS011;50896;46.714;17.322;2023-01-01T16:41:27;6.28;;;3.88;;
64520;SDS011;50896;46.714;17.322;2023-01-01T16:43:55;7.78;;;4.40;;
64520;SDS011;50896;46.714;17.322;2023-01-01T16:46:23;7.22;;;4.78;;
64520;SDS011;50896;46.714;17.322;2023-01-01T16:48:51;8.57;;;5.00;;
64520;SDS011;50896;46.714;17.322;2023-01-01T16:51:19;16.80;;;6.43;;
64520;SDS011;50896;46.714;17.322;2023-01-01T16:53:48;10.35;;;4.72;;
64520;SDS011;50896;46.714;17.322;2023-01-01T16:56:15;8.25;;;4.35;;
64520;SDS011;50896;46.714;17.322;2023-01-01T16:58:42;5.70;;;3.58;;
64520;SDS011;50896;46.714;17.322;2023-01-01T17:01:16;7.07;;;3.72;;
64520;SDS011;50896;46.714;17.322;2023-01-01T17:03:46;11.05;;;5.82;;
64520;SDS011;50896;46.714;17.322;2023-01-01T17:06:13;10.07;;;6.40;;
64520;SDS011;50896;46.714;17.322;2023-01-01T17:08:40;8.00;;;5.28;;
64520;SDS011;50896;46.714;17.322;2023-01-01T17:11:10;9.18;;;4.80;;
64520;SDS011;50896;46.714;17.322;2023-01-01T17:13:40;7.43;;;4.68;;
64520;SDS011;50896;46.714;17.322;2023-01-01T17:16:08;7.63;;;5.40;;